Time;durP1;ratioP1;P1;durP2;ratioP2;P2;SDS_P1;SDS_P2;PMS_P1;PMS_P2;Temp;Humidity;BMP_temperature;BMP_pressure;BME280_temperature;BME280_humidity;BME280_pressure;Samples;Min_cycle;Max_cycle;Signal;HPM_P1;HPM_P2
2022/06/28 00:01:37;;;;;;;15.13;11.23;;;;;;;21.00;59.96;100184.72;4833490;29;20052;-78
2022/06/28 00:04:04;;;;;;;16.08;10.88;;;;;;;20.95;60.21;100164.72;4832680;29;20046;-81
2022/06/28 00:06:30;;;;;;;21.40;10.93;;;;;;;20.99;60.27;100172.44;4830349;29;20441;-78
2022/06/28 00:08:56;;;;;;;16.02;11.50;;;;;;;21.07;60.19;100182.66;4820662;29;20673;-82
2022/06/28 00:11:22;;;;;;;26.25;11.88;;;;;;;21.01;60.46;100167.06;4820032;29;20132;-79
2022/06/28 00:13:48;;;;;;;15.63;11.20;;;;;;;21.03;60.18;100170.50;4830133;29;20046;-80
2022/06/28 00:16:16;;;;;;;19.58;11.57;;;;;;;21.02;60.18;100167.00;4829094;29;20053;-80
2022/06/28 00:18:43;;;;;;;14.13;10.60;;;;;;;21.19;60.57;100191.81;4819317;29;20410;-80
2022/06/28 00:21:09;;;;;;;17.75;11.45;;;;;;;21.20;60.33;100198.81;4815675;29;20048;-80
2022/06/28 00:23:37;;;;;;;21.60;12.25;;;;;;;21.20;60.04;100190.88;4832517;29;20096;-79
2022/06/28 00:26:07;;;;;;;17.65;11.80;;;;;;;21.21;60.50;100198.72;4831257;29;20141;-81
2022/06/28 00:28:33;;;;;;;21.90;11.45;;;;;;;21.12;60.27;100183.31;4820779;29;20136;-78
2022/06/28 00:30:59;;;;;;;13.77;11.40;;;;;;;21.23;60.59;100193.38;4833623;29;20105;-81
2022/06/28 00:33:25;;;;;;;14.27;11.13;;;;;;;21.19;60.48;100190.00;4819359;29;20043;-78
2022/06/28 00:35:51;;;;;;;18.60;10.98;;;;;;;21.20;60.41;100190.88;4831034;29;20046;-81
2022/06/28 00:38:17;;;;;;;20.88;10.55;;;;;;;21.24;60.51;100204.81;4818304;29;20073;-78
2022/06/28 00:40:49;;;;;;;23.17;11.80;;;;;;;21.24;60.50;100204.81;4831809;29;20109;-79
2022/06/28 00:43:17;;;;;;;18.70;11.32;;;;;;;21.12;60.43;100191.25;4829853;29;20174;-79
2022/06/28 00:45:45;;;;;;;16.80;11.38;;;;;;;21.23;60.89;100203.97;4829702;29;20041;-81
2022/06/28 00:48:15;;;;;;;15.02;12.07;;;;;;;21.11;60.96;100183.34;4832250;29;20045;-82
2022/06/28 00:50:42;;;;;;;18.63;12.30;;;;;;;21.23;60.58;100206.63;4835454;29;20046;-79
2022/06/28 00:53:19;;;;;;;15.02;12.45;;;;;;;21.25;61.10;100201.22;4833153;29;20045;-81
2022/06/28 00:55:46;;;;;;;14.93;11.93;;;;;;;21.18;60.76;100203.31;4830728;29;20143;-82
2022/06/28 00:58:14;;;;;;;13.35;11.50;;;;;;;21.22;60.88;100205.75;4829904;29;20045;-80
2022/06/28 01:00:43;;;;;;;15.25;11.88;;;;;;;21.26;61.10;100205.59;4829341;29;20145;-81
2022/06/28 01:03:23;;;;;;;14.15;12.38;;;;;;;21.26;60.73;100217.06;4819159;29;20045;-82
2022/06/28 01:05:51;;;;;;;15.93;11.82;;;;;;;21.26;60.66;100216.19;4829367;29;20049;-82
2022/06/28 01:08:20;;;;;;;18.48;12.25;;;;;;;21.26;61.07;100221.47;4818992;29;20291;-78
2022/06/28 01:10:46;;;;;;;14.93;11.65;;;;;;;21.25;60.62;100217.09;4830981;29;20110;-83
2022/06/28 01:13:14;;;;;;;13.65;11.20;;;;;;;21.16;60.82;100203.41;4814743;29;20041;-82
2022/06/28 01:15:44;;;;;;;14.80;12.18;;;;;;;21.19;60.86;100212.97;4818913;29;20407;-84
2022/06/28 01:18:12;;;;;;;13.48;10.32;;;;;;;21.25;60.67;100228.56;4829804;29;20050;-79
2022/06/28 01:20:45;;;;;;;24.10;12.75;;;;;;;21.21;60.47;100225.19;4830482;29;20745;-80
2022/06/28 01:23:20;;;;;;;13.68;11.75;;;;;;;21.26;60.90;100227.63;4829841;29;20496;-79
2022/06/28 01:25:52;;;;;;;13.15;11.82;;;;;;;21.19;60.60;100224.41;4831302;29;20050;-79
2022/06/28 01:28:25;;;;;;;14.63;11.45;;;;;;;21.20;60.73;100218.19;4820227;29;20046;-80
2022/06/28 01:30:58;;;;;;;16.88;11.93;;;;;;;21.25;60.68;100222.41;4843045;29;20052;-81
2022/06/28 01:33:25;;;;;;;14.93;11.25;;;;;;;21.28;60.80;100231.06;4853700;29;20038;-76
2022/06/28 01:35:54;;;;;;;13.63;11.30;;;;;;;21.27;60.78;100228.47;4842886;29;20049;-81
2022/06/28 01:38:22;;;;;;;16.42;11.30;;;;;;;21.24;60.64;100210.09;4820379;29;20065;-78
2022/06/28 01:40:49;;;;;;;16.38;12.50;;;;;;;21.30;60.36;100221.25;4828424;29;20042;-76
2022/06/28 01:43:19;;;;;;;12.15;10.82;;;;;;;21.34;60.57;100227.28;4830194;29;20054;-81
2022/06/28 01:45:50;;;;;;;13.95;12.40;;;;;;;21.32;60.26;100219.38;4818362;29;20099;-78
2022/06/28 01:48:21;;;;;;;15.82;12.52;;;;;;;21.28;60.35;100216.97;4830605;29;20053;-78
2022/06/28 01:51:01;;;;;;;17.77;12.23;;;;;;;21.42;60.59;100232.19;4818415;29;20070;-79
2022/06/28 01:53:28;;;;;;;15.40;12.45;;;;;;;21.47;60.51;100238.16;4818059;29;20050;-78
2022/06/28 01:56:13;;;;;;;12.93;11.52;;;;;;;21.50;60.84;100236.19;4833752;29;20050;-81
2022/06/28 01:58:59;;;;;;;15.93;12.40;;;;;;;21.54;60.46;100244.00;4835127;29;20062;-79
2022/06/28 02:01:33;;;;;;;16.27;12.38;;;;;;;21.50;60.41;100230.06;4821382;29;20068;-78
2022/06/28 02:04:17;;;;;;;16.88;12.80;;;;;;;21.59;60.54;100242.00;4832984;29;20149;-80
2022/06/28 02:06:44;;;;;;;17.67;14.10;;;;;;;21.57;60.55;100236.75;4817121;29;20065;-80
2022/06/28 02:09:11;;;;;;;15.85;12.57;;;;;;;21.63;60.91;100248.88;4822282;29;20133;-81
2022/06/28 02:11:42;;;;;;;14.32;12.82;;;;;;;21.65;60.85;100244.34;4833811;29;20050;-81
2022/06/28 02:14:09;;;;;;;15.23;13.60;;;;;;;21.67;60.51;100245.16;4831458;29;21044;-79
2022/06/28 02:16:36;;;;;;;13.98;12.57;;;;;;;21.60;60.94;100241.06;4832165;29;20077;-80
2022/06/28 02:19:03;;;;;;;18.45;13.00;;;;;;;21.70;60.55;100249.47;4839713;29;20049;-79
2022/06/28 02:21:41;;;;;;;15.70;12.45;;;;;;;21.75;60.53;100239.47;4834270;29;20050;-82
2022/06/28 02:24:09;;;;;;;14.98;12.88;;;;;;;21.89;60.54;100255.56;4831199;29;20049;-78
2022/06/28 02:26:37;;;;;;;15.27;13.75;;;;;;;21.90;60.31;100243.16;4824432;29;21054;-79
2022/06/28 02:29:05;;;;;;;15.10;13.00;;;;;;;21.94;60.39;100242.09;4834677;29;20050;-79
2022/06/28 02:31:32;;;;;;;17.02;13.35;;;;;;;22.03;60.31;100251.38;4834038;29;20052;-81
2022/06/28 02:33:59;;;;;;;17.15;14.35;;;;;;;22.07;59.81;100247.63;4818532;29;20042;-80
2022/06/28 02:41:42;;;;;;;14.88;13.32;;;;;;;22.24;59.21;100263.53;4833164;29;20053;-79
2022/06/28 02:44:08;;;;;;;18.08;14.00;;;;;;;22.27;59.49;100260.75;4832847;29;20141;-79
2022/06/28 02:46:34;;;;;;;15.13;13.52;;;;;;;22.40;59.74;100265.41;4820819;29;20041;-81
2022/06/28 02:49:00;;;;;;;14.65;12.93;;;;;;;22.47;59.42;100261.56;4832679;29;20086;-80
2022/06/28 02:51:26;;;;;;;14.40;12.77;;;;;;;22.49;59.58;100251.72;4832973;29;20457;-81
2022/06/28 02:53:53;;;;;;;15.82;12.95;;;;;;;22.63;59.34;100266.94;4820173;29;20237;-81
2022/06/28 02:56:20;;;;;;;14.50;12.55;;;;;;;22.65;59.24;100264.19;4819370;29;20416;-81
2022/06/28 02:58:46;;;;;;;19.02;13.52;;;;;;;22.73;58.97;100264.66;4834528;29;20098;-78
2022/06/28 03:01:13;;;;;;;14.73;12.93;;;;;;;22.78;58.80;100257.31;4821310;29;20050;-79
2022/06/28 03:03:40;;;;;;;16.10;12.75;;;;;;;22.89;58.64;100266.47;4832479;29;20077;-79
2022/06/28 03:06:06;;;;;;;13.35;11.95;;;;;;;22.95;58.98;100266.16;4858090;29;20041;-79
2022/06/28 03:08:33;;;;;;;14.23;11.43;;;;;;;22.96;58.91;100257.28;4853090;29;20034;-79
2022/06/28 03:11:00;;;;;;;19.27;12.55;;;;;;;23.14;58.54;100263.41;4825486;29;20050;-77
2022/06/28 03:13:26;;;;;;;14.38;12.18;;;;;;;23.22;58.37;100263.00;4832372;29;20045;-79
2022/06/28 03:15:52;;;;;;;14.30;12.05;;;;;;;23.32;58.19;100272.16;4833602;29;20389;-79
2022/06/28 03:18:18;;;;;;;14.20;12.63;;;;;;;23.46;57.94;100279.38;4831723;29;20058;-79
2022/06/28 03:20:44;;;;;;;12.40;10.75;;;;;;;23.50;57.63;100266.81;4822303;29;20045;-79
2022/06/28 03:23:11;;;;;;;14.95;11.90;;;;;;;23.62;57.43;100288.19;4819956;29;20049;-78
2022/06/28 03:25:37;;;;;;;12.48;10.75;;;;;;;23.74;57.31;100291.97;4829023;29;20046;-79
2022/06/28 03:28:04;;;;;;;17.55;11.68;;;;;;;23.71;56.94;100265.59;4838325;29;20053;-77
2022/06/28 03:30:31;;;;;;;16.30;11.02;;;;;;;23.94;56.62;100283.81;4841115;29;20137;-77
2022/06/28 03:32:57;;;;;;;11.57;10.32;;;;;;;24.05;56.50;100289.41;4814968;29;20050;-81
2022/06/28 03:35:28;;;;;;;12.95;11.35;;;;;;;24.01;56.41;100290.53;4841758;29;20050;-79
2022/06/28 03:37:55;;;;;;;11.25;10.02;;;;;;;24.11;55.97;100288.19;4839935;29;20094;-79
2022/06/28 03:40:31;;;;;;;12.82;10.35;;;;;;;23.99;54.84;100289.75;4830081;29;20085;-79
2022/06/28 03:42:57;;;;;;;14.68;10.43;;;;;;;23.95;55.65;100289.03;4830591;29;20053;-78
2022/06/28 03:45:24;;;;;;;12.25;10.00;;;;;;;24.06;55.71;100297.28;4836672;29;20182;-80
2022/06/28 03:48:10;;;;;;;13.25;10.00;;;;;;;24.20;54.92;100298.28;4827050;29;20208;-80
2022/06/28 03:50:59;;;;;;;12.48;9.50;;;;;;;24.48;54.57;100291.34;4815940;29;20427;-79
2022/06/28 03:53:31;;;;;;;12.18;10.70;;;;;;;24.89;53.76;100298.66;4823271;29;20042;-80
2022/06/28 03:56:19;;;;;;;10.57;9.52;;;;;;;25.07;52.77;100290.47;4815990;29;20073;-81
2022/06/28 03:58:45;;;;;;;13.68;9.43;;;;;;;25.09;52.96;100305.44;4821450;29;20504;-80
2022/06/28 04:01:12;;;;;;;12.07;9.90;;;;;;;25.12;52.72;100299.03;4826292;29;20053;-80
2022/06/28 04:03:37;;;;;;;9.95;9.05;;;;;;;25.11;52.46;100297.34;4831996;29;20046;-80
2022/06/28 04:06:04;;;;;;;11.90;9.68;;;;;;;25.18;52.21;100297.81;4827961;29;20053;-82
2022/06/28 04:08:30;;;;;;;12.70;9.60;;;;;;;25.18;52.22;100292.47;4827422;29;20642;-80
2022/06/28 04:11:15;;;;;;;13.07;9.88;;;;;;;25.18;51.91;100289.81;4832225;29;20042;-78
2022/06/28 04:13:45;;;;;;;11.70;9.70;;;;;;;25.13;52.05;100283.94;4820024;29;20523;-81
2022/06/28 04:16:13;;;;;;;11.77;9.25;;;;;;;25.16;51.75;100291.75;4816473;29;20045;-83
2022/06/28 04:18:41;;;;;;;17.25;8.73;;;;;;;25.26;51.87;100293.72;4830591;29;20536;-81
2022/06/28 04:21:26;;;;;;;8.55;7.50;;;;;;;25.36;51.61;100282.47;4818722;29;20047;-82
2022/06/28 04:24:04;;;;;;;9.52;7.93;;;;;;;25.52;51.17;100259.28;4832968;29;20140;-81
2022/06/28 04:26:30;;;;;;;10.80;7.97;;;;;;;25.75;50.44;100288.91;4817595;29;20053;-81
2022/06/28 04:28:56;;;;;;;10.13;8.57;;;;;;;25.66;50.67;100285.03;4831124;29;20574;-79
2022/06/28 04:31:25;;;;;;;10.15;7.97;;;;;;;25.84;50.26;100288.31;4818451;29;20085;-79
2022/06/28 04:33:52;;;;;;;8.30;7.50;;;;;;;25.93;50.00;100288.66;4829471;29;20136;-78
2022/06/28 04:36:23;;;;;;;9.80;8.13;;;;;;;25.90;49.90;100283.53;4820915;29;20173;-83
2022/06/28 04:38:49;;;;;;;10.05;8.15;;;;;;;25.94;49.98;100291.22;4838723;29;20089;-82
2022/06/28 04:41:26;;;;;;;11.05;8.63;;;;;;;26.03;49.27;100303.09;4855141;29;20114;-77
2022/06/28 04:44:15;;;;;;;9.48;8.60;;;;;;;25.99;49.68;100297.13;4834394;29;20060;-81
2022/06/28 04:46:47;;;;;;;9.48;8.45;;;;;;;26.19;49.68;100308.28;4833842;29;20042;-82
2022/06/28 04:49:17;;;;;;;9.38;8.48;;;;;;;26.31;49.08;100312.78;4831352;29;20056;-79
2022/06/28 04:51:46;;;;;;;9.65;8.73;;;;;;;26.26;48.79;100298.06;4833273;29;20120;-79
2022/06/28 04:54:20;;;;;;;10.15;8.90;;;;;;;26.26;49.04;100300.75;4841173;29;20050;-79
2022/06/28 04:57:13;;;;;;;9.93;8.90;;;;;;;26.53;48.46;100310.50;4818238;29;20050;-79
2022/06/28 04:59:44;;;;;;;10.57;9.20;;;;;;;26.83;48.14;100301.38;4821021;29;20048;-80
2022/06/28 05:02:22;;;;;;;11.27;8.85;;;;;;;26.93;47.43;100305.13;4816139;29;20062;-79
2022/06/28 05:04:49;;;;;;;11.38;9.07;;;;;;;27.05;47.89;100311.41;4830546;29;20054;-80
2022/06/28 05:07:41;;;;;;;12.30;8.82;;;;;;;27.42;47.04;100308.78;4824717;29;20145;-78
2022/06/28 05:10:13;;;;;;;10.15;9.25;;;;;;;27.75;46.85;100304.69;4820071;29;20056;-80
2022/06/28 05:12:56;;;;;;;12.05;10.00;;;;;;;27.99;46.38;100313.66;4832125;29;20061;-77
2022/06/28 05:15:23;;;;;;;10.18;9.27;;;;;;;28.14;46.12;100309.03;4816306;29;20535;-78
2022/06/28 05:18:06;;;;;;;10.32;9.38;;;;;;;28.36;45.13;100294.88;4831886;29;20053;-79
2022/06/28 05:20:34;;;;;;;12.02;9.27;;;;;;;28.42;45.25;100291.72;4828824;29;20534;-79
2022/06/28 05:23:00;;;;;;;10.98;9.80;;;;;;;28.61;44.86;100290.31;4830079;29;20042;-79
2022/06/28 05:25:46;;;;;;;9.95;8.95;;;;;;;28.93;44.35;100301.22;4822478;29;20535;-83
2022/06/28 05:28:12;;;;;;;11.05;8.70;;;;;;;29.02;43.91;100305.00;4835144;29;20052;-77
2022/06/28 05:30:39;;;;;;;11.30;8.63;;;;;;;29.06;43.54;100297.59;4832815;29;20050;-77
2022/06/28 05:33:05;;;;;;;10.35;8.27;;;;;;;29.02;42.85;100299.63;4806435;29;20102;-78
2022/06/28 05:35:32;;;;;;;9.60;8.23;;;;;;;29.00;43.03;100291.72;4822529;29;20052;-81
2022/06/28 05:38:00;;;;;;;9.43;8.52;;;;;;;29.09;42.50;100276.75;4837225;29;21109;-80
2022/06/28 05:40:26;;;;;;;9.75;8.57;;;;;;;29.19;42.40;100297.47;4822877;29;20076;-79
2022/06/28 05:42:52;;;;;;;11.13;8.63;;;;;;;29.25;42.37;100288.91;4821405;29;20057;-78
2022/06/28 05:45:18;;;;;;;10.27;7.50;;;;;;;29.28;42.38;100305.63;4823765;29;20496;-79
2022/06/28 05:47:45;;;;;;;9.02;8.13;;;;;;;29.28;41.57;100299.38;4833827;29;20194;-77
2022/06/28 05:50:12;;;;;;;9.02;7.18;;;;;;;29.54;41.51;100310.75;4834027;29;20082;-82
2022/06/28 05:52:38;;;;;;;8.30;7.38;;;;;;;29.91;40.67;100301.47;4820742;29;20038;-78
2022/06/28 05:55:04;;;;;;;6.97;6.28;;;;;;;30.51;39.65;100301.84;4833573;29;20532;-78
2022/06/28 05:57:31;;;;;;;9.40;7.22;;;;;;;30.58;39.03;100286.09;4824382;29;20040;-78
2022/06/28 05:59:57;;;;;;;8.23;7.07;;;;;;;30.83;37.49;100299.25;4833620;29;20062;-80
2022/06/28 06:02:23;;;;;;;10.32;7.60;;;;;;;32.08;37.32;100300.78;4836225;29;20368;-81
2022/06/28 06:04:50;;;;;;;8.60;6.88;;;;;;;34.09;35.01;100284.28;4834573;29;20050;-78
2022/06/28 06:07:17;;;;;;;11.95;7.03;;;;;;;35.04;32.31;100298.97;4833902;29;20152;-81
2022/06/28 06:09:44;;;;;;;8.02;6.43;;;;;;;36.11;31.33;100298.44;4832211;29;20133;-80
2022/06/28 06:12:10;;;;;;;8.68;7.07;;;;;;;37.42;29.30;100278.50;4837492;29;20122;-83
2022/06/28 06:14:37;;;;;;;7.18;6.35;;;;;;;38.19;28.18;100299.38;4856168;29;20046;-79
2022/06/28 06:17:04;;;;;;;7.65;6.25;;;;;;;39.30;26.69;100293.31;4838841;29;20050;-79
2022/06/28 06:19:30;;;;;;;8.40;6.38;;;;;;;40.39;25.46;100279.72;4823680;29;20207;-79
2022/06/28 06:21:56;;;;;;;7.32;6.53;;;;;;;41.40;24.27;100305.66;4823469;29;20044;-80
2022/06/28 06:24:22;;;;;;;8.07;6.13;;;;;;;41.77;23.22;100299.91;4833392;29;21543;-83
2022/06/28 06:27:20;;;;;;;6.95;4.90;;;;;;;42.50;22.38;100284.59;4833637;29;20268;-83
2022/06/28 06:29:46;;;;;;;7.43;4.68;;;;;;;42.54;21.20;100283.13;4835892;29;20065;-81
2022/06/28 06:32:20;;;;;;;4.75;4.35;;;;;;;42.94;20.10;100286.81;4821543;29;20046;-80
2022/06/28 06:35:12;;;;;;;5.38;4.60;;;;;;;43.07;19.97;100285.94;4840237;29;20079;-80
2022/06/28 06:37:38;;;;;;;7.97;5.20;;;;;;;43.91;19.48;100281.28;4839875;29;20074;-81
2022/06/28 06:40:05;;;;;;;5.72;4.80;;;;;;;44.36;18.77;100293.16;4834310;29;20529;-83
2022/06/28 06:42:31;;;;;;;6.47;4.47;;;;;;;44.80;17.95;100279.41;4836222;29;20374;-81
2022/06/28 06:45:03;;;;;;;4.70;4.30;;;;;;;45.34;17.54;100287.84;4834030;29;20050;-81
2022/06/28 06:47:30;;;;;;;5.30;4.40;;;;;;;45.79;16.38;100277.47;4820826;29;20129;-80
2022/06/28 06:49:55;;;;;;;6.40;4.45;;;;;;;46.11;15.59;100286.25;4830804;29;20061;-83
2022/06/28 06:52:22;;;;;;;8.18;4.90;;;;;;;46.17;16.20;100277.06;4833753;29;20050;-82
2022/06/28 06:54:48;;;;;;;10.40;4.97;;;;;;;46.68;15.08;100304.03;4820267;29;20054;-82
2022/06/28 06:57:15;;;;;;;7.03;4.50;;;;;;;47.14;14.63;100314.38;4832832;29;20419;-83
2022/06/28 06:59:42;;;;;;;7.22;4.25;;;;;;;46.60;15.16;100298.94;4831126;29;20436;-80
2022/06/28 07:02:08;;;;;;;7.15;4.47;;;;;;;47.41;14.70;100313.81;4833128;29;20102;-81
2022/06/28 07:04:46;;;;;;;7.43;4.13;;;;;;;47.61;14.30;100286.66;4830509;29;20077;-82
2022/06/28 07:07:12;;;;;;;6.93;4.57;;;;;;;48.52;13.40;100314.31;4830520;29;20129;-83
2022/06/28 07:09:40;;;;;;;7.68;4.60;;;;;;;48.67;13.91;100297.09;4829626;29;20050;-82
2022/06/28 07:12:06;;;;;;;5.88;4.22;;;;;;;49.44;12.65;100317.41;4831292;29;20053;-82
2022/06/28 07:14:32;;;;;;;4.90;4.40;;;;;;;49.98;12.31;100332.28;4819804;29;20056;-83
2022/06/28 07:17:01;;;;;;;;;;;;;;;49.84;12.22;100317.22;4830299;29;20050;-82
2022/06/28 07:19:28;;;;;;;5.82;4.00;;;;;;;49.63;12.58;100305.16;4829524;29;19924;-82
2022/06/28 07:21:54;;;;;;;5.63;4.22;;;;;;;49.75;11.92;100325.16;4835763;29;20255;-83
2022/06/28 07:24:21;;;;;;;6.68;3.90;;;;;;;49.68;11.89;100308.78;4819912;29;20504;-85
2022/06/28 07:26:49;;;;;;;12.05;3.97;;;;;;;49.51;11.80;100300.63;4822181;29;20038;-83
2022/06/28 07:29:15;;;;;;;8.93;3.83;;;;;;;49.92;11.44;100289.09;4820959;29;20476;-82
2022/06/28 07:31:41;;;;;;;5.97;3.63;;;;;;;50.27;11.25;100322.84;4830427;29;20202;-83
2022/06/28 07:34:10;;;;;;;4.32;3.88;;;;;;;49.77;11.04;100334.00;4817630;29;20042;-84
2022/06/28 07:36:36;;;;;;;4.53;3.60;;;;;;;50.16;11.21;100308.09;4832780;29;20060;-83
2022/06/28 07:39:03;;;;;;;4.25;3.47;;;;;;;50.63;10.68;100325.81;4830665;29;20095;-83
2022/06/28 07:41:30;;;;;;;5.88;3.80;;;;;;;49.91;10.89;100322.53;4833281;29;20049;-83
2022/06/28 07:44:14;;;;;;;7.90;3.45;;;;;;;50.45;10.08;100314.09;4829699;29;20038;-84
2022/06/28 07:46:41;;;;;;;4.65;3.28;;;;;;;50.57;10.58;100337.94;4841108;29;20054;-82
2022/06/28 07:49:07;;;;;;;6.32;3.50;;;;;;;50.90;10.23;100333.97;4840841;29;20051;-83
2022/06/28 07:58:16;;;;;;;5.90;3.55;;;;;;;51.56;10.02;100342.78;4833134;29;20457;-81
2022/06/28 08:00:43;;;;;;;3.58;3.28;;;;;;;52.12;9.20;100343.91;4830873;29;20568;-81
2022/06/28 08:03:17;;;;;;;4.03;3.15;;;;;;;51.91;9.72;100337.56;4828662;29;20045;-81
2022/06/28 08:05:43;;;;;;;6.97;3.30;;;;;;;51.32;9.37;100347.97;4829282;29;20472;-81
2022/06/28 08:08:10;;;;;;;4.35;3.33;;;;;;;51.30;9.10;100337.19;4815655;29;20154;-81
2022/06/28 08:10:37;;;;;;;7.32;3.00;;;;;;;51.89;9.10;100348.88;4832450;29;20041;-81
2022/06/28 08:13:07;;;;;;;5.35;3.15;;;;;;;51.13;8.71;100344.88;4834930;29;20042;-79
2022/06/28 08:15:33;;;;;;;4.13;3.08;;;;;;;50.40;9.62;100343.66;4835441;29;20049;-81
2022/06/28 08:17:59;;;;;;;3.75;3.25;;;;;;;50.98;9.29;100351.19;4819606;29;20585;-81
2022/06/28 08:20:27;;;;;;;12.48;5.35;;;;;;;51.27;8.75;100354.34;4818063;29;20081;-81
2022/06/28 08:22:53;;;;;;;12.40;6.18;;;;;;;50.76;9.45;100349.41;4817913;29;20041;-82
2022/06/28 08:25:20;;;;;;;7.65;2.90;;;;;;;50.92;9.42;100351.16;4819407;29;20045;-80
2022/06/28 08:27:47;;;;;;;5.68;2.60;;;;;;;50.78;9.11;100350.78;4832968;29;20085;-81
2022/06/28 08:30:13;;;;;;;4.88;3.25;;;;;;;50.64;8.48;100352.38;4829725;29;20068;-83
2022/06/28 08:32:39;;;;;;;34.40;27.90;;;;;;;51.12;8.93;100346.78;4830834;29;20441;-81
2022/06/28 08:35:05;;;;;;;4.18;2.40;;;;;;;51.00;9.12;100357.28;4830137;29;20045;-80
2022/06/28 08:37:32;;;;;;;4.38;3.60;;;;;;;51.11;8.44;100358.16;4834048;29;20052;-82
2022/06/28 08:39:57;;;;;;;10.75;5.40;;;;;;;51.53;8.73;100362.72;4833430;29;20141;-81
2022/06/28 08:42:30;;;;;;;3.83;2.38;;;;;;;51.79;8.38;100355.25;4821283;29;20053;-79
2022/06/28 08:45:00;;;;;;;7.00;3.72;;;;;;;51.13;8.21;100361.47;4830724;29;20030;-79
2022/06/28 08:47:32;;;;;;;18.45;10.07;;;;;;;51.80;8.03;100354.16;4833710;29;20153;-81
2022/06/28 08:50:04;;;;;;;4.05;2.40;;;;;;;52.03;8.06;100356.69;4836956;29;20573;-80
2022/06/28 08:52:35;;;;;;;3.58;2.50;;;;;;;52.03;8.37;100362.22;4821030;29;20501;-82
2022/06/28 08:55:06;;;;;;;3.75;2.40;;;;;;;51.01;8.04;100356.19;4800932;29;20404;-78
2022/06/28 08:57:35;;;;;;;3.95;2.58;;;;;;;50.49;8.48;100355.88;4818520;29;20050;-80
2022/06/28 09:00:05;;;;;;;12.25;9.15;;;;;;;51.53;7.92;100362.72;4829313;29;20051;-81
2022/06/28 09:02:32;;;;;;;10.52;7.55;;;;;;;51.64;7.88;100358.03;4821291;29;20921;-80
2022/06/28 09:05:00;;;;;;;3.67;2.40;;;;;;;51.74;8.00;100362.75;4821786;29;20820;-82
2022/06/28 09:07:29;;;;;;;8.00;6.07;;;;;;;52.30;7.58;100361.13;4819206;29;20061;-81
2022/06/28 09:09:55;;;;;;;5.15;2.33;;;;;;;51.78;7.29;100345.28;4818986;29;20116;-84
2022/06/28 09:12:22;;;;;;;12.60;3.17;;;;;;;50.91;8.24;100346.72;4834505;29;20036;-80
2022/06/28 09:14:51;;;;;;;5.20;2.40;;;;;;;50.01;8.00;100355.81;4821367;29;20082;-81
2022/06/28 09:17:27;;;;;;;3.97;2.13;;;;;;;49.96;8.53;100364.91;4827017;29;20081;-85
2022/06/28 09:20:05;;;;;;;3.28;1.90;;;;;;;50.24;8.08;100353.78;4819812;29;20128;-81
2022/06/28 09:22:42;;;;;;;6.05;2.30;;;;;;;51.03;7.49;100362.28;4852557;29;20042;-80
2022/06/28 09:25:12;;;;;;;3.90;1.83;;;;;;;51.36;7.39;100360.19;4852773;29;20037;-81
2022/06/28 09:27:41;;;;;;;4.38;2.10;;;;;;;51.33;7.15;100350.47;4831098;29;20048;-83
2022/06/28 09:30:12;;;;;;;4.47;1.97;;;;;;;50.67;7.21;100359.31;4831739;29;20129;-82
2022/06/28 09:32:39;;;;;;;3.33;2.08;;;;;;;50.47;7.14;100327.63;4831552;29;20094;-82
2022/06/28 09:35:09;;;;;;;5.55;2.58;;;;;;;50.61;6.41;100337.16;4832113;29;20058;-84
2022/06/28 09:40:14;;;;;;;4.15;2.00;;;;;;;51.06;6.56;100364.50;4834210;29;20061;-81
2022/06/28 09:42:42;;;;;;;4.85;2.03;;;;;;;50.93;6.92;100371.38;4823134;29;20042;-81
2022/06/28 09:45:09;;;;;;;6.80;6.10;;;;;;;50.04;7.47;100369.09;4832612;29;20068;-81
2022/06/28 09:47:41;;;;;;;4.82;4.07;;;;;;;49.81;7.71;100353.69;4818485;29;20110;-80
2022/06/28 09:50:09;;;;;;;5.43;3.15;;;;;;;49.85;7.62;100343.78;4817900;29;20042;-82
2022/06/28 09:52:40;;;;;;;4.78;2.30;;;;;;;50.02;7.25;100354.69;4834408;29;20097;-80
2022/06/28 09:55:07;;;;;;;4.45;2.95;;;;;;;50.12;7.23;100354.75;4832519;29;20046;-82
2022/06/28 09:57:34;;;;;;;6.70;3.88;;;;;;;49.38;6.78;100351.56;4835224;29;20050;-82
2022/06/28 10:00:01;;;;;;;4.03;2.05;;;;;;;49.48;7.11;100347.28;4818751;29;20420;-80
2022/06/28 10:02:41;;;;;;;4.30;2.00;;;;;;;49.19;7.65;100355.78;4831431;29;20058;-80
2022/06/28 10:05:08;;;;;;;5.03;2.35;;;;;;;48.85;8.09;100351.19;4818894;29;20087;-82
2022/06/28 10:07:35;;;;;;;3.22;2.15;;;;;;;48.75;7.94;100349.13;4832018;29;20065;-81
2022/06/28 10:10:04;;;;;;;4.15;1.70;;;;;;;48.80;8.20;100351.13;4816774;29;20046;-81
2022/06/28 10:15:20;;;;;;;2.45;1.40;;;;;;;48.53;7.75;100332.53;4857262;29;20053;-81
2022/06/28 10:18:04;;;;;;;2.38;1.55;;;;;;;48.33;7.96;100353.22;4832671;29;20063;-82
2022/06/28 10:20:34;;;;;;;3.47;1.55;;;;;;;47.26;7.69;100340.00;4835362;29;20046;-82
2022/06/28 10:23:25;;;;;;;7.15;1.92;;;;;;;47.00;8.79;100342.19;4834316;29;20528;-80
2022/06/28 10:26:15;;;;;;;4.95;1.60;;;;;;;46.81;8.20;100338.75;4818520;29;20575;-81
2022/06/28 10:28:47;;;;;;;6.28;3.58;;;;;;;45.63;8.73;100342.13;4832370;29;20046;-80
2022/06/28 10:31:23;;;;;;;4.70;1.50;;;;;;;44.00;9.62;100336.63;4822986;29;20133;-81
2022/06/28 10:33:51;;;;;;;3.95;1.42;;;;;;;42.58;10.43;100343.72;4835542;29;20137;-81
2022/06/28 10:36:19;;;;;;;5.10;1.60;;;;;;;41.24;10.67;100341.50;4821736;29;20128;-81
2022/06/28 10:39:01;;;;;;;3.80;1.73;;;;;;;40.11;11.48;100336.91;4834823;29;20130;-81
2022/06/28 10:41:44;;;;;;;6.18;1.60;;;;;;;39.06;12.23;100337.13;4822077;29;20579;-82
2022/06/28 10:44:16;;;;;;;4.05;1.20;;;;;;;38.04;13.09;100340.06;4833832;29;20102;-82
2022/06/28 10:46:49;;;;;;;6.80;1.58;;;;;;;36.76;14.32;100350.03;4835316;29;20038;-81
2022/06/28 10:49:15;;;;;;;13.68;1.65;;;;;;;35.53;15.07;100335.34;4821028;29;20048;-81
2022/06/28 10:52:09;;;;;;;4.68;1.92;;;;;;;34.80;15.33;100341.03;4832292;29;20108;-81
2022/06/28 10:54:36;;;;;;;3.08;1.30;;;;;;;34.57;15.73;100339.84;4840425;29;20042;-81
2022/06/28 10:57:19;;;;;;;4.00;1.30;;;;;;;34.19;15.83;100319.28;4856022;29;20122;-81
2022/06/28 10:59:48;;;;;;;4.47;1.48;;;;;;;34.01;15.90;100334.63;4848361;29;20049;-82
2022/06/28 11:02:14;;;;;;;3.55;1.40;;;;;;;33.60;16.42;100338.56;4823349;29;20471;-81
2022/06/28 11:04:40;;;;;;;5.43;1.48;;;;;;;33.42;16.78;100340.38;4834052;29;20058;-79
2022/06/28 11:07:23;;;;;;;3.83;1.38;;;;;;;33.22;16.94;100339.59;4836493;29;20033;-82
2022/06/28 11:10:04;;;;;;;5.93;1.65;;;;;;;32.91;17.19;100354.16;4832707;29;20048;-80
2022/06/28 11:12:38;;;;;;;8.68;4.93;;;;;;;32.63;18.09;100362.13;4820344;29;20133;-81
2022/06/28 11:15:06;;;;;;;4.28;1.58;;;;;;;32.25;17.93;100353.03;4832112;29;20449;-80
2022/06/28 11:17:35;;;;;;;3.40;1.33;;;;;;;31.72;18.86;100351.56;4832094;29;20073;-80
2022/06/28 11:20:07;;;;;;;3.22;1.60;;;;;;;31.44;18.96;100354.84;4819521;29;20153;-81
2022/06/28 11:22:44;;;;;;;1.95;1.35;;;;;;;31.20;19.43;100339.03;4834464;29;20053;-81
2022/06/28 11:25:19;;;;;;;1.55;1.20;;;;;;;31.06;19.34;100337.53;4832764;29;20472;-81
2022/06/28 11:27:46;;;;;;;2.25;1.25;;;;;;;30.99;19.65;100355.19;4833163;29;20111;-81
2022/06/28 11:30:14;;;;;;;2.03;1.25;;;;;;;30.77;20.73;100351.66;4815932;29;20110;-82
2022/06/28 11:32:45;;;;;;;3.20;1.25;;;;;;;30.64;20.52;100346.50;4832190;29;20477;-82
2022/06/28 11:35:20;;;;;;;8.02;1.58;;;;;;;30.60;20.30;100361.16;4836701;29;20073;-83
2022/06/28 11:37:53;;;;;;;3.50;1.30;;;;;;;30.25;20.15;100330.91;4823857;29;20042;-81
2022/06/28 11:40:23;;;;;;;3.88;1.25;;;;;;;30.08;20.53;100350.25;4831845;29;20114;-81
2022/06/28 11:43:04;;;;;;;6.47;1.60;;;;;;;29.42;20.86;100287.59;4833518;29;20050;-81
2022/06/28 11:45:35;;;;;;;4.60;1.23;;;;;;;29.64;21.04;100355.53;4817412;29;20043;-81
2022/06/28 11:48:04;;;;;;;4.07;1.40;;;;;;;29.57;21.03;100341.78;4820925;29;20142;-79
2022/06/28 11:50:42;;;;;;;3.40;1.40;;;;;;;29.38;21.16;100350.44;4831035;29;20050;-80